EJA673 KCAE-KCRG
Flight info
| Callsign | EJA673 |
|---|---|
| Flight time | 0h 40m |
| Altitude | 34000 |
| Route | SAV SSI |
| Aircraft | CL60/M-SBDE1E2E3FGHIJ1J4J5J7M3RWXYZ/LB1V1D1 |
Departure
| Time | 2026-04-26 01:56 |
|---|---|
| Airport | Columbia Metropolitan Airport (KCAE) |
Arrival
| Time | 2026-04-26 02:37 |
|---|---|
| Airport | Jacksonville Executive at Craig Airport (KCRG) |
| Time | Latitude | Longitude | Altitude | Speed | Heading |
|---|---|---|---|---|---|
| 2026-04-26 01:24 | 33.94427 | -81.12103 | 236 ft | 0 kts | 153° |
| 2026-04-26 01:50 | 33.94420 | -81.12098 | 235 ft | 4 kts | 153° |
| 2026-04-26 01:50 | 33.94370 | -81.12086 | 234 ft | 5 kts | 189° |
| 2026-04-26 01:51 | 33.94330 | -81.12096 | 234 ft | 3 kts | 191° |
| 2026-04-26 01:51 | 33.94304 | -81.12105 | 233 ft | 6 kts | 199° |
| 2026-04-26 01:51 | 33.94258 | -81.12144 | 232 ft | 10 kts | 272° |
| 2026-04-26 01:51 | 33.94279 | -81.12239 | 234 ft | 12 kts | 285° |
| 2026-04-26 01:52 | 33.94301 | -81.12343 | 237 ft | 13 kts | 285° |
| 2026-04-26 01:52 | 33.94329 | -81.12464 | 238 ft | 16 kts | 285° |
| 2026-04-26 01:52 | 33.94360 | -81.12605 | 239 ft | 18 kts | 284° |
| 2026-04-26 01:52 | 33.94394 | -81.12768 | 240 ft | 21 kts | 284° |
| 2026-04-26 01:53 | 33.94435 | -81.12950 | 240 ft | 23 kts | 285° |
| 2026-04-26 01:53 | 33.94476 | -81.13141 | 241 ft | 20 kts | 285° |
| 2026-04-26 01:53 | 33.94511 | -81.13310 | 240 ft | 21 kts | 283° |
| 2026-04-26 01:53 | 33.94541 | -81.13441 | 241 ft | 13 kts | 286° |
| 2026-04-26 01:54 | 33.94564 | -81.13541 | 240 ft | 11 kts | 285° |
| 2026-04-26 01:54 | 33.94587 | -81.13648 | 238 ft | 10 kts | 284° |
| 2026-04-26 01:54 | 33.94574 | -81.13709 | 234 ft | 7 kts | 197° |
| 2026-04-26 01:54 | 33.94520 | -81.13730 | 231 ft | 7 kts | 194° |
| 2026-04-26 01:55 | 33.94497 | -81.13737 | 231 ft | 0 kts | 194° |
| 2026-04-26 01:55 | 33.94478 | -81.13743 | 230 ft | 6 kts | 194° |
| 2026-04-26 01:55 | 33.94427 | -81.13758 | 228 ft | 4 kts | 195° |
| 2026-04-26 01:56 | 33.94405 | -81.13734 | 227 ft | 5 kts | 103° |
| 2026-04-26 01:56 | 33.94358 | -81.13511 | 233 ft | 75 kts | 105° |
| 2026-04-26 01:56 | 33.94130 | -81.12483 | 305 ft | 167 kts | 104° |
| 2026-04-26 01:56 | 33.93833 | -81.11105 | 1367 ft | 176 kts | 103° |
| 2026-04-26 01:57 | 33.93544 | -81.09804 | 2573 ft | 157 kts | 104° |
| 2026-04-26 01:57 | 33.93273 | -81.08529 | 2906 ft | 158 kts | 103° |
| 2026-04-26 01:57 | 33.92979 | -81.07268 | 2757 ft | 160 kts | 106° |
| 2026-04-26 01:57 | 33.92666 | -81.05861 | 2935 ft | 186 kts | 104° |
| 2026-04-26 01:58 | 33.92328 | -81.04236 | 3076 ft | 212 kts | 103° |
| 2026-04-26 01:58 | 33.91951 | -81.02512 | 3181 ft | 213 kts | 112° |
| 2026-04-26 01:58 | 33.91077 | -81.01092 | 3590 ft | 221 kts | 144° |
| 2026-04-26 01:58 | 33.89671 | -81.00401 | 4905 ft | 225 kts | 177° |
| 2026-04-26 01:59 | 33.88173 | -81.00440 | 6271 ft | 229 kts | 189° |
| 2026-04-26 01:59 | 33.86505 | -81.00641 | 7182 ft | 257 kts | 189° |
| 2026-04-26 01:59 | 33.84675 | -81.00859 | 8310 ft | 274 kts | 189° |
| 2026-04-26 01:59 | 33.82773 | -81.01081 | 9580 ft | 284 kts | 188° |
| 2026-04-26 02:00 | 33.80785 | -81.01309 | 10741 ft | 297 kts | 189° |
| 2026-04-26 02:00 | 33.78593 | -81.01570 | 11284 ft | 331 kts | 189° |
| 2026-04-26 02:00 | 33.76238 | -81.01842 | 12146 ft | 347 kts | 188° |
| 2026-04-26 02:00 | 33.73794 | -81.02121 | 13044 ft | 360 kts | 188° |
| 2026-04-26 02:01 | 33.71292 | -81.02406 | 14028 ft | 370 kts | 188° |
| 2026-04-26 02:01 | 33.68704 | -81.02700 | 15080 ft | 376 kts | 188° |
| 2026-04-26 02:01 | 33.66089 | -81.02997 | 16106 ft | 382 kts | 188° |
| 2026-04-26 02:01 | 33.63403 | -81.03301 | 17041 ft | 389 kts | 188° |
| 2026-04-26 02:02 | 33.60647 | -81.03614 | 17949 ft | 396 kts | 189° |
| 2026-04-26 02:02 | 33.57882 | -81.03927 | 18868 ft | 401 kts | 188° |
| 2026-04-26 02:02 | 33.55071 | -81.04245 | 19771 ft | 405 kts | 188° |
| 2026-04-26 02:02 | 33.52203 | -81.04569 | 20603 ft | 411 kts | 189° |
| 2026-04-26 02:03 | 33.49352 | -81.04891 | 21410 ft | 415 kts | 188° |
| 2026-04-26 02:03 | 33.46446 | -81.05219 | 22201 ft | 420 kts | 188° |
| 2026-04-26 02:03 | 33.43505 | -81.05552 | 22918 ft | 425 kts | 189° |
| 2026-04-26 02:03 | 33.40498 | -81.05891 | 23632 ft | 430 kts | 189° |
| 2026-04-26 02:04 | 33.37484 | -81.06231 | 24395 ft | 433 kts | 189° |
| 2026-04-26 02:04 | 33.34477 | -81.06569 | 25131 ft | 436 kts | 189° |
| 2026-04-26 02:04 | 33.31407 | -81.06915 | 25825 ft | 440 kts | 188° |
| 2026-04-26 02:04 | 33.28367 | -81.07256 | 26502 ft | 442 kts | 188° |
| 2026-04-26 02:05 | 33.25294 | -81.07601 | 27121 ft | 445 kts | 189° |
| 2026-04-26 02:05 | 33.22174 | -81.07952 | 27656 ft | 450 kts | 189° |
| 2026-04-26 02:05 | 33.19040 | -81.08304 | 28215 ft | 453 kts | 189° |
| 2026-04-26 02:05 | 33.15923 | -81.08653 | 28734 ft | 456 kts | 189° |
| 2026-04-26 02:06 | 33.12728 | -81.09012 | 29250 ft | 458 kts | 189° |
| 2026-04-26 02:06 | 33.09500 | -81.09373 | 29770 ft | 459 kts | 189° |
| 2026-04-26 02:06 | 33.06318 | -81.09728 | 30428 ft | 457 kts | 189° |
| 2026-04-26 02:06 | 33.03159 | -81.10081 | 31116 ft | 453 kts | 189° |
| 2026-04-26 02:07 | 33.00048 | -81.10427 | 31838 ft | 448 kts | 189° |
| 2026-04-26 02:07 | 32.96963 | -81.10770 | 32535 ft | 443 kts | 189° |
| 2026-04-26 02:07 | 32.93894 | -81.11112 | 33182 ft | 440 kts | 189° |
| 2026-04-26 02:07 | 32.90838 | -81.11453 | 33729 ft | 438 kts | 190° |
| 2026-04-26 02:08 | 32.87766 | -81.11797 | 33887 ft | 444 kts | 189° |
| 2026-04-26 02:08 | 32.81518 | -81.12497 | 33888 ft | 452 kts | 189° |
| 2026-04-26 02:09 | 32.75248 | -81.13194 | 33887 ft | 450 kts | 190° |
| 2026-04-26 02:09 | 32.69008 | -81.13887 | 33887 ft | 449 kts | 190° |
| 2026-04-26 02:10 | 32.62792 | -81.14577 | 33888 ft | 449 kts | 189° |
| 2026-04-26 02:10 | 32.56527 | -81.15272 | 33886 ft | 449 kts | 189° |
| 2026-04-26 02:11 | 32.50269 | -81.15964 | 33888 ft | 450 kts | 189° |
| 2026-04-26 02:11 | 32.44025 | -81.16654 | 33889 ft | 450 kts | 189° |
| 2026-04-26 02:12 | 32.37770 | -81.17345 | 33890 ft | 449 kts | 189° |
| 2026-04-26 02:12 | 32.31553 | -81.18030 | 33892 ft | 448 kts | 190° |
| 2026-04-26 02:12 | 32.28428 | -81.18375 | 33619 ft | 449 kts | 189° |
| 2026-04-26 02:13 | 32.25344 | -81.18713 | 33101 ft | 444 kts | 189° |
| 2026-04-26 02:13 | 32.22224 | -81.19054 | 32545 ft | 442 kts | 189° |
| 2026-04-26 02:13 | 32.19165 | -81.19391 | 31977 ft | 442 kts | 189° |
| 2026-04-26 02:13 | 32.16121 | -81.19727 | 31400 ft | 444 kts | 189° |
| 2026-04-26 02:14 | 32.13033 | -81.20239 | 30825 ft | 443 kts | 194° |
| 2026-04-26 02:14 | 32.10009 | -81.20933 | 30262 ft | 445 kts | 195° |
| 2026-04-26 02:14 | 32.06977 | -81.21626 | 29683 ft | 447 kts | 195° |
| 2026-04-26 02:14 | 32.03885 | -81.22332 | 29092 ft | 450 kts | 195° |
| 2026-04-26 02:15 | 32.00846 | -81.23025 | 28495 ft | 450 kts | 194° |
| 2026-04-26 02:15 | 31.97761 | -81.23726 | 27896 ft | 447 kts | 194° |
| 2026-04-26 02:15 | 31.94725 | -81.24416 | 27301 ft | 445 kts | 194° |
| 2026-04-26 02:15 | 31.91701 | -81.25101 | 26715 ft | 441 kts | 194° |
| 2026-04-26 02:16 | 31.88682 | -81.25787 | 26130 ft | 438 kts | 194° |
| 2026-04-26 02:16 | 31.85671 | -81.26469 | 25537 ft | 436 kts | 194° |
| 2026-04-26 02:16 | 31.82715 | -81.27138 | 24964 ft | 433 kts | 194° |
| 2026-04-26 02:16 | 31.79758 | -81.27808 | 24388 ft | 431 kts | 194° |
| 2026-04-26 02:17 | 31.76787 | -81.28480 | 23810 ft | 428 kts | 194° |
| 2026-04-26 02:17 | 31.73892 | -81.29134 | 23250 ft | 426 kts | 194° |
| 2026-04-26 02:17 | 31.70968 | -81.29795 | 22685 ft | 424 kts | 194° |
| 2026-04-26 02:17 | 31.68071 | -81.30450 | 22119 ft | 421 kts | 194° |
| 2026-04-26 02:18 | 31.65204 | -81.31096 | 21563 ft | 418 kts | 194° |
| 2026-04-26 02:18 | 31.62350 | -81.31740 | 21007 ft | 415 kts | 194° |
| 2026-04-26 02:18 | 31.59502 | -81.32381 | 20455 ft | 412 kts | 194° |
| 2026-04-26 02:18 | 31.56687 | -81.33015 | 19906 ft | 409 kts | 194° |
| 2026-04-26 02:19 | 31.53919 | -81.33638 | 19369 ft | 406 kts | 194° |
| 2026-04-26 02:19 | 31.51136 | -81.34264 | 18827 ft | 403 kts | 194° |
| 2026-04-26 02:19 | 31.48417 | -81.34875 | 18304 ft | 400 kts | 194° |
| 2026-04-26 02:19 | 31.45670 | -81.35491 | 17769 ft | 397 kts | 194° |
| 2026-04-26 02:20 | 31.42945 | -81.36102 | 17349 ft | 395 kts | 194° |
| 2026-04-26 02:20 | 31.40247 | -81.36709 | 16778 ft | 393 kts | 194° |
| 2026-04-26 02:20 | 31.37585 | -81.37305 | 16270 ft | 389 kts | 194° |
| 2026-04-26 02:20 | 31.34932 | -81.37899 | 15776 ft | 386 kts | 194° |
| 2026-04-26 02:21 | 31.32278 | -81.38494 | 15251 ft | 383 kts | 194° |
| 2026-04-26 02:21 | 31.29673 | -81.39077 | 14745 ft | 379 kts | 194° |
| 2026-04-26 02:21 | 31.27107 | -81.39651 | 14246 ft | 375 kts | 194° |
| 2026-04-26 02:21 | 31.24560 | -81.40220 | 13752 ft | 368 kts | 194° |
| 2026-04-26 02:22 | 31.22075 | -81.40774 | 13268 ft | 358 kts | 194° |
| 2026-04-26 02:22 | 31.19644 | -81.41316 | 12796 ft | 349 kts | 194° |
| 2026-04-26 02:22 | 31.17299 | -81.41838 | 12340 ft | 340 kts | 194° |
| 2026-04-26 02:22 | 31.15001 | -81.42350 | 11893 ft | 332 kts | 194° |
| 2026-04-26 02:23 | 31.12759 | -81.42850 | 11461 ft | 325 kts | 194° |
| 2026-04-26 02:23 | 31.10552 | -81.43342 | 11033 ft | 319 kts | 194° |
| 2026-04-26 02:23 | 31.08400 | -81.43821 | 10614 ft | 313 kts | 194° |
| 2026-04-26 02:23 | 31.06274 | -81.44295 | 10204 ft | 308 kts | 194° |
| 2026-04-26 02:24 | 31.04198 | -81.44862 | 9850 ft | 300 kts | 201° |
| 2026-04-26 02:24 | 31.02234 | -81.45654 | 9540 ft | 292 kts | 202° |
| 2026-04-26 02:24 | 31.00364 | -81.46413 | 9422 ft | 283 kts | 202° |
| 2026-04-26 02:24 | 30.98481 | -81.47178 | 9200 ft | 288 kts | 202° |
| 2026-04-26 02:25 | 30.96565 | -81.47955 | 8965 ft | 285 kts | 202° |
| 2026-04-26 02:25 | 30.94685 | -81.48715 | 8741 ft | 284 kts | 202° |
| 2026-04-26 02:25 | 30.92821 | -81.49468 | 8521 ft | 282 kts | 202° |
| 2026-04-26 02:25 | 30.90969 | -81.50217 | 8299 ft | 281 kts | 202° |
| 2026-04-26 02:26 | 30.89108 | -81.50967 | 8075 ft | 279 kts | 202° |
| 2026-04-26 02:26 | 30.87282 | -81.51703 | 7857 ft | 278 kts | 202° |
| 2026-04-26 02:26 | 30.85470 | -81.52433 | 7643 ft | 277 kts | 202° |
| 2026-04-26 02:26 | 30.83627 | -81.53173 | 7426 ft | 275 kts | 202° |
| 2026-04-26 02:27 | 30.81829 | -81.53896 | 7209 ft | 274 kts | 201° |
| 2026-04-26 02:27 | 30.80008 | -81.54627 | 6991 ft | 273 kts | 202° |
| 2026-04-26 02:27 | 30.78222 | -81.55344 | 6785 ft | 271 kts | 202° |
| 2026-04-26 02:27 | 30.76397 | -81.56075 | 6571 ft | 270 kts | 201° |
| 2026-04-26 02:28 | 30.74631 | -81.56783 | 6349 ft | 269 kts | 201° |
| 2026-04-26 02:28 | 30.72854 | -81.57495 | 6140 ft | 268 kts | 202° |
| 2026-04-26 02:28 | 30.71096 | -81.58199 | 5949 ft | 267 kts | 202° |
| 2026-04-26 02:28 | 30.69301 | -81.58917 | 5721 ft | 266 kts | 201° |
| 2026-04-26 02:29 | 30.67562 | -81.59612 | 5519 ft | 261 kts | 201° |
| 2026-04-26 02:29 | 30.65860 | -81.60292 | 5315 ft | 256 kts | 202° |
| 2026-04-26 02:29 | 30.64177 | -81.60963 | 5117 ft | 250 kts | 202° |
| 2026-04-26 02:29 | 30.62546 | -81.61614 | 4920 ft | 244 kts | 201° |
| 2026-04-26 02:30 | 30.60954 | -81.62250 | 4732 ft | 239 kts | 201° |
| 2026-04-26 02:30 | 30.59400 | -81.62869 | 4546 ft | 233 kts | 201° |
| 2026-04-26 02:30 | 30.57885 | -81.63474 | 4365 ft | 228 kts | 201° |
| 2026-04-26 02:30 | 30.56373 | -81.64076 | 4181 ft | 222 kts | 201° |
| 2026-04-26 02:31 | 30.54913 | -81.64658 | 4006 ft | 217 kts | 201° |
| 2026-04-26 02:31 | 30.53513 | -81.65308 | 3834 ft | 216 kts | 206° |
| 2026-04-26 02:31 | 30.52139 | -81.66026 | 3665 ft | 211 kts | 206° |
| 2026-04-26 02:31 | 30.50821 | -81.66713 | 3508 ft | 203 kts | 206° |
| 2026-04-26 02:32 | 30.49554 | -81.67373 | 3353 ft | 196 kts | 206° |
| 2026-04-26 02:32 | 30.48300 | -81.68004 | 3194 ft | 194 kts | 200° |
| 2026-04-26 02:32 | 30.46959 | -81.68148 | 3048 ft | 198 kts | 172° |
| 2026-04-26 02:32 | 30.45724 | -81.67469 | 2970 ft | 194 kts | 138° |
| 2026-04-26 02:33 | 30.44894 | -81.66252 | 2992 ft | 195 kts | 126° |
| 2026-04-26 02:33 | 30.44137 | -81.64946 | 2905 ft | 194 kts | 126° |
| 2026-04-26 02:33 | 30.43382 | -81.63665 | 2608 ft | 189 kts | 127° |
| 2026-04-26 02:33 | 30.42657 | -81.62440 | 2404 ft | 180 kts | 127° |
| 2026-04-26 02:34 | 30.41964 | -81.61271 | 2164 ft | 173 kts | 128° |
| 2026-04-26 02:34 | 30.41286 | -81.60141 | 1943 ft | 168 kts | 129° |
| 2026-04-26 02:34 | 30.40567 | -81.59091 | 1701 ft | 158 kts | 135° |
| 2026-04-26 02:34 | 30.39862 | -81.58225 | 1540 ft | 137 kts | 139° |
| 2026-04-26 02:35 | 30.39219 | -81.57476 | 1353 ft | 128 kts | 139° |
| 2026-04-26 02:35 | 30.38593 | -81.56755 | 1186 ft | 126 kts | 138° |
| 2026-04-26 02:35 | 30.37967 | -81.56034 | 1018 ft | 124 kts | 137° |
| 2026-04-26 02:35 | 30.37357 | -81.55332 | 855 ft | 124 kts | 138° |
| 2026-04-26 02:36 | 30.36740 | -81.54620 | 692 ft | 122 kts | 137° |
| 2026-04-26 02:36 | 30.36136 | -81.53929 | 539 ft | 122 kts | 138° |
| 2026-04-26 02:36 | 30.35534 | -81.53236 | 374 ft | 121 kts | 137° |
| 2026-04-26 02:36 | 30.34941 | -81.52544 | 213 ft | 120 kts | 137° |
| 2026-04-26 02:37 | 30.34350 | -81.51862 | 65 ft | 120 kts | 137° |
| 2026-04-26 02:37 | 30.33843 | -81.51277 | 41 ft | 55 kts | 134° |
| 2026-04-26 02:37 | 30.33716 | -81.51134 | 41 ft | 10 kts | 135° |
| 2026-04-26 02:37 | 30.33661 | -81.51139 | 41 ft | 7 kts | 224° |
| 2026-04-26 02:38 | 30.33639 | -81.51163 | 41 ft | 2 kts | 223° |
| 2026-04-26 02:38 | 30.33630 | -81.51176 | 41 ft | 4 kts | 238° |
| 2026-04-26 02:38 | 30.33627 | -81.51240 | 41 ft | 10 kts | 268° |
| 2026-04-26 02:38 | 30.33671 | -81.51317 | 41 ft | 14 kts | 315° |
| 2026-04-26 02:39 | 30.33751 | -81.51409 | 41 ft | 18 kts | 315° |
| 2026-04-26 02:39 | 30.33848 | -81.51520 | 41 ft | 18 kts | 314° |
| 2026-04-26 02:39 | 30.33938 | -81.51624 | 40 ft | 16 kts | 314° |
| 2026-04-26 02:39 | 30.34012 | -81.51709 | 41 ft | 13 kts | 314° |
| 2026-04-26 02:40 | 30.34040 | -81.51766 | 41 ft | 9 kts | 235° |
| 2026-04-26 02:40 | 30.33999 | -81.51811 | 43 ft | 6 kts | 222° |
| 2026-04-26 02:40 | 30.34003 | -81.51852 | 44 ft | 7 kts | 295° |
| 2026-04-26 02:40 | 30.34034 | -81.51896 | 44 ft | 7 kts | 36° |
| 2026-04-26 02:41 | 30.34039 | -81.51892 | 44 ft | 0 kts | 37° |